New Preston, Connecticut
Current Conditions -  °F | °C
As of 11:52 AM on Monday 26 Jan 2015 (Local Time) from KOXC Reporting Station
Light Snow Light Snow  
Wind Chill:   Ceiling: 3000
Heat Index: 16°   Visibility: 2mi
Dew Point:   Wind: 9mph
Humidity: 49%   Direction: 60°ENE
Pressure: 30.01"   Gusts: 17mph
Location:  41.6879°N, 73.3378°W
Report Text: KOXC 261552Z 06008G15KT 2SM -SN BR OVC030 M09/M18 A3001
Loading
Personal Weather Stations






























Interactive Weather Map New forecast layout! Learn more

10-Day Weather Forecast

Advertisements
Track Severe Weather on mobile